Latty, Ohio
Current Conditions -  °F | °C
As of 11:53 AM on Thursday 30 Oct 2014 (Local Time) from KDFI Reporting Station
Overcast Overcast  
Wind Chill: 45°   Ceiling: 4100
Heat Index: 45°   Visibility: 10mi
Dew Point: 37°   Wind: 3mph
Humidity: 74%   Direction: 160°SSE
Pressure: 30.17"   Gusts: NA
Location:  41.09°N, 84.59°W
Report Text: KDFI 301553Z AUTO 16003KT 10SM OVC041 07/03 A3017 RMK AO2 SLP219 T00720028
Loading
Personal Weather Stations






























Interactive Weather Map
Tropical Storm Tracking
New forecast layout! Learn more

10-Day Weather Forecast

Advertisements
Track Severe Weather on mobile